Terminal Aerodrome Forecast
Issued by NWS

Home | Current Version | Previous Version | Text Only | Print | Product List | Glossary On
Versions: 1 2 3 4 5 6 7 8 9 10 11 12 13
000
FTUS44 KLIX 300532
TAFGPT
TAF
KGPT 300532Z 3006/0106 VRB03KT P6SM SCT250
     FM301500 27011KT P6SM BKN120
     FM301900 27011G19KT P6SM VCTS SCT035CB SCT080 SCT150
     FM010100 VRB06KT P6SM SCT060 SCT250=

USA.gov is the U.S. government's official web portal to all federal, state and local government web resources and services.